createdAt,value
2023-01-31T00:04:55.274Z,99327.54
2023-01-31T00:10:01.314Z,99333.55
2023-01-31T00:15:09.056Z,99330.29
2023-01-31T00:20:15.492Z,99339.89
2023-01-31T00:25:23.857Z,99343.84
2023-01-31T00:30:31.348Z,99346.39
2023-01-31T00:35:40.994Z,99352.71
2023-01-31T00:40:53.709Z,99357.67
2023-01-31T00:46:00.461Z,99366.91
2023-01-31T00:51:09.313Z,99372.05
2023-01-31T00:56:18.514Z,99378.88
2023-01-31T01:01:27.360Z,99373.77
2023-01-31T01:06:36.150Z,99374.61
2023-01-31T01:11:43.931Z,99384.36
2023-01-31T01:16:53.863Z,99387.65
2023-01-31T01:22:04.879Z,99394.14
2023-01-31T01:27:15.894Z,99392.10
2023-01-31T01:32:25.568Z,99397.09
2023-01-31T01:37:31.783Z,99400.48
2023-01-31T01:42:38.271Z,99410.21
2023-01-31T01:47:50.390Z,99424.60
2023-01-31T01:53:02.037Z,99423.94
2023-01-31T01:58:12.605Z,99426.02
2023-01-31T02:03:22.697Z,99434.39
2023-01-31T02:08:33.028Z,99443.30
2023-01-31T02:13:41.800Z,99453.39
2023-01-31T02:18:57.729Z,99467.42
2023-01-31T02:24:37.185Z,99480.27
2023-01-31T02:30:03.009Z,99488.30
2023-01-31T02:35:21.376Z,99496.34
2023-01-31T02:40:38.004Z,99498.23
2023-01-31T02:45:53.985Z,99500.62
2023-01-31T02:51:09.532Z,99511.40
2023-01-31T02:56:23.764Z,99518.77
2023-01-31T03:01:34.484Z,99530.27
2023-01-31T03:07:01.805Z,99541.75
2023-01-31T03:12:29.213Z,99554.77
2023-01-31T03:17:47.216Z,99562.84
2023-01-31T03:22:57.836Z,99570.21
2023-01-31T03:28:09.297Z,99577.20
2023-01-31T03:33:21.122Z,99586.45
2023-01-31T03:38:34.408Z,99593.31
2023-01-31T03:43:45.733Z,99598.27
2023-01-31T03:49:00.911Z,99600.66
2023-01-31T03:54:12.701Z,99603.24
2023-01-31T03:59:25.359Z,99604.97
2023-01-31T04:04:39.825Z,99608.05
2023-01-31T04:09:46.770Z,99613.39
2023-01-31T04:14:52.971Z,99617.33
2023-01-31T04:20:00.469Z,99624.17
2023-01-31T04:25:08.315Z,99621.97
2023-01-31T04:30:15.407Z,99644.43
2023-01-31T04:35:21.744Z,99646.16
2023-01-31T04:40:29.273Z,99653.53
2023-01-31T04:45:37.073Z,99656.31
2023-01-31T04:50:46.257Z,99664.61
2023-01-31T04:55:55.692Z,99663.63
2023-01-31T05:01:01.989Z,99671.55
2023-01-31T05:06:09.434Z,99679.31
2023-01-31T05:11:16.066Z,99687.38
2023-01-31T05:16:22.196Z,99696.81
2023-01-31T05:21:29.772Z,99706.73
2023-01-31T05:26:36.108Z,99726.10
2023-01-31T05:31:42.336Z,99730.20
2023-01-31T05:36:48.490Z,99742.02
2023-01-31T05:41:55.015Z,99754.02
2023-01-31T05:47:01.400Z,99762.75
2023-01-31T05:52:07.647Z,99770.64
2023-01-31T05:57:15.967Z,99776.98
2023-01-31T06:02:22.526Z,99787.59
2023-01-31T06:07:28.854Z,99797.88
2023-01-31T06:12:36.784Z,99803.19
2023-01-31T06:17:43.111Z,99811.25
2023-01-31T06:22:50.624Z,99819.29
2023-01-31T06:27:58.029Z,99833.17
2023-01-31T06:33:04.849Z,99840.38
2023-01-31T06:38:16.995Z,99846.55
2023-01-31T06:43:24.618Z,99852.04
2023-01-31T06:48:31.725Z,99858.55
2023-01-31T06:53:38.134Z,99869.00
2023-01-31T06:58:45.618Z,99879.80
2023-01-31T07:03:53.005Z,99885.80
2023-01-31T07:08:59.463Z,99892.33
2023-01-31T07:14:06.855Z,99901.58
2023-01-31T07:19:13.004Z,99911.52
2023-01-31T07:24:19.517Z,99916.85
2023-01-31T07:29:26.369Z,99927.98
2023-01-31T07:34:32.692Z,99937.59
2023-01-31T07:39:38.946Z,99943.59
2023-01-31T07:44:47.301Z,99947.02
2023-01-31T07:49:54.033Z,99950.61
2023-01-31T07:55:00.677Z,99953.33
2023-01-31T08:00:32.028Z,99962.21
2023-01-31T08:05:39.407Z,99972.65
2023-01-31T08:10:47.395Z,99985.34
2023-01-31T08:15:54.917Z,99991.52
2023-01-31T08:21:01.344Z,100006.13
2023-01-31T08:26:11.142Z,100009.23
2023-01-31T08:31:19.632Z,100015.04
2023-01-31T08:36:31.725Z,100024.98
2023-01-31T08:41:40.939Z,100031.48
2023-01-31T08:46:47.225Z,100028.73
2023-01-31T08:51:54.636Z,100033.71
2023-01-31T08:57:01.031Z,100031.62
2023-01-31T09:02:10.093Z,100038.27
2023-01-31T09:07:21.711Z,100038.85
2023-01-31T09:12:28.798Z,100039.09
2023-01-31T09:17:36.232Z,100047.69
2023-01-31T09:22:44.460Z,100050.63
2023-01-31T09:27:52.265Z,100054.10
2023-01-31T09:33:01.241Z,100062.90
2023-01-31T09:38:07.640Z,100066.71
2023-01-31T09:43:14.944Z,100066.73
2023-01-31T09:48:26.943Z,100069.45
2023-01-31T09:53:36.444Z,100068.34
2023-01-31T09:58:55.155Z,100078.05
2023-01-31T10:04:20.476Z,100078.89
2023-01-31T10:09:32.050Z,100079.46
2023-01-31T10:14:43.379Z,100082.19
2023-01-31T10:19:51.487Z,100082.66
2023-01-31T10:25:03.681Z,100081.70
2023-01-31T10:30:17.799Z,100080.36
2023-01-31T10:35:31.856Z,100078.67
2023-01-31T10:40:42.362Z,100079.41
2023-01-31T10:45:48.882Z,100082.36
2023-01-31T10:51:16.998Z,100084.11
2023-01-31T10:56:29.842Z,100078.30
2023-01-31T11:01:37.989Z,100071.70
2023-01-31T11:06:44.089Z,100067.70
2023-01-31T11:11:59.902Z,100068.42
2023-01-31T11:17:10.020Z,100071.02
2023-01-31T11:22:26.350Z,100074.08
2023-01-31T11:27:38.423Z,100079.73
2023-01-31T11:32:46.138Z,100086.33
2023-01-31T11:37:55.319Z,100089.16
2023-01-31T11:43:04.125Z,100090.60
2023-01-31T11:48:18.818Z,100094.39
2023-01-31T11:53:33.742Z,100095.23
2023-01-31T11:58:43.087Z,100083.84
2023-01-31T12:04:03.041Z,100078.25
2023-01-31T12:09:23.175Z,100067.52
2023-01-31T12:14:40.094Z,100068.89
2023-01-31T12:19:58.629Z,100068.33
2023-01-31T12:25:17.038Z,100062.83
2023-01-31T12:30:35.220Z,100055.98
2023-01-31T12:35:54.632Z,100053.05
2023-01-31T12:41:16.528Z,100046.54
2023-01-31T12:46:32.236Z,100043.99
2023-01-31T12:51:51.796Z,100039.61
2023-01-31T12:57:21.790Z,100035.34
2023-01-31T13:02:44.654Z,100034.49
2023-01-31T13:07:58.061Z,100045.08
2023-01-31T13:13:06.450Z,100037.72
2023-01-31T13:18:15.114Z,100033.52
2023-01-31T13:23:32.432Z,100025.21
2023-01-31T13:28:44.627Z,100024.92
2023-01-31T13:33:56.472Z,100024.77
2023-01-31T13:39:08.942Z,100014.36
2023-01-31T13:44:17.455Z,100014.08
2023-01-31T13:49:29.433Z,100011.41
2023-01-31T13:54:41.276Z,100013.07
2023-01-31T13:59:56.454Z,100020.38
2023-01-31T14:05:30.729Z,100025.06
2023-01-31T14:15:47.774Z,100027.02
2023-01-31T14:20:53.714Z,100027.21
2023-01-31T14:25:59.482Z,100023.46
2023-01-31T14:31:14.182Z,100021.77
2023-01-31T14:36:53.598Z,100027.29
2023-01-31T14:42:20.424Z,100030.05
2023-01-31T14:47:39.948Z,100032.47
2023-01-31T14:55:48.897Z,100024.58
2023-01-31T15:00:58.738Z,100022.17
2023-01-31T15:06:22.133Z,100018.58
2023-01-31T15:11:43.404Z,100011.37
2023-01-31T15:16:58.126Z,100007.43
2023-01-31T15:22:07.917Z,100010.34
2023-01-31T15:27:18.573Z,100011.88
2023-01-31T15:32:27.583Z,100011.38
2023-01-31T15:37:35.380Z,100009.66
2023-01-31T15:42:41.053Z,100006.40
2023-01-31T15:47:56.620Z,100012.55
2023-01-31T15:53:06.784Z,100007.58
2023-01-31T15:58:20.035Z,100001.06
2023-01-31T16:03:27.960Z,100007.05
2023-01-31T16:08:35.989Z,100007.38
2023-01-31T16:13:42.941Z,100010.60
2023-01-31T16:18:51.169Z,100011.80
2023-01-31T16:24:02.309Z,100009.72
2023-01-31T16:29:21.782Z,100010.56
2023-01-31T16:34:30.255Z,100008.49
2023-01-31T16:39:39.979Z,100010.03
2023-01-31T16:44:47.454Z,100010.38
2023-01-31T16:50:13.115Z,100003.00
2023-01-31T16:55:21.796Z,99988.27
2023-01-31T17:00:36.049Z,99981.95
2023-01-31T17:05:47.226Z,99979.39
2023-01-31T17:10:53.445Z,99973.06
2023-01-31T17:15:59.250Z,99967.40
2023-01-31T17:21:06.382Z,99962.95
2023-01-31T17:26:17.635Z,99954.52
2023-01-31T17:31:24.869Z,99947.84
2023-01-31T17:36:30.740Z,99941.34
2023-01-31T17:41:36.869Z,99934.48
2023-01-31T17:46:43.179Z,99925.06
2023-01-31T17:51:49.127Z,99917.31
2023-01-31T17:56:55.040Z,99905.67
2023-01-31T18:02:01.122Z,99892.98
2023-01-31T18:07:07.021Z,99879.62
2023-01-31T18:12:12.830Z,99873.10
2023-01-31T18:17:19.885Z,99862.14
2023-01-31T18:22:25.699Z,99858.02
2023-01-31T18:27:31.515Z,99850.31
2023-01-31T18:32:38.087Z,99842.95
2023-01-31T18:37:44.000Z,99836.27
2023-01-31T18:42:49.604Z,99828.71
2023-01-31T18:47:55.291Z,99818.60
2023-01-31T18:53:01.678Z,99807.64
2023-01-31T18:58:07.359Z,99797.36
2023-01-31T19:03:13.203Z,99784.50
2023-01-31T19:08:19.072Z,99780.05
2023-01-31T19:13:27.587Z,99773.71
2023-01-31T19:18:33.836Z,99766.48
2023-01-31T19:23:39.397Z,99761.00
2023-01-31T19:28:46.651Z,99760.67
2023-01-31T19:33:54.104Z,99750.89
2023-01-31T19:39:01.673Z,99734.44
2023-01-31T19:44:07.788Z,99720.89
2023-01-31T19:49:13.739Z,99710.10
2023-01-31T19:54:20.813Z,99693.48
2023-01-31T19:59:29.653Z,99685.23
2023-01-31T20:04:35.147Z,99670.65
2023-01-31T20:09:40.920Z,99658.48
2023-01-31T20:14:46.543Z,99646.64
2023-01-31T20:19:52.229Z,99633.24
2023-01-31T20:24:58.295Z,99629.97
2023-01-31T20:30:04.345Z,99618.30
2023-01-31T20:35:10.689Z,99608.34
2023-01-31T20:40:16.869Z,99599.42
2023-01-31T20:45:28.212Z,99584.50
2023-01-31T20:50:33.749Z,99582.62
2023-01-31T20:55:39.277Z,99577.82
2023-01-31T21:00:45.151Z,99562.40
2023-01-31T21:05:51.292Z,99557.77
2023-01-31T21:10:58.578Z,99549.20
2023-01-31T21:16:07.305Z,99540.48
2023-01-31T21:21:22.782Z,99530.70
2023-01-31T21:26:28.624Z,99521.27
2023-01-31T21:31:35.627Z,99509.95
2023-01-31T21:36:41.284Z,99497.42
2023-01-31T21:42:06.051Z,99485.05
2023-01-31T21:47:11.766Z,99476.82
2023-01-31T21:52:17.359Z,99464.30
2023-01-31T21:57:23.259Z,99453.81
2023-01-31T22:02:29.022Z,99443.88
2023-01-31T22:07:34.888Z,99438.59
2023-01-31T22:12:40.709Z,99427.48
2023-01-31T22:17:46.305Z,99422.59
2023-01-31T22:22:52.073Z,99412.59
2023-01-31T22:27:57.860Z,99410.27
2023-01-31T22:33:03.606Z,99404.31
2023-01-31T22:38:09.508Z,99394.45
2023-01-31T22:43:17.278Z,99388.66
2023-01-31T22:48:24.114Z,99388.99
2023-01-31T22:53:33.967Z,99377.86
2023-01-31T22:58:39.909Z,99372.87
2023-01-31T23:03:46.082Z,99358.95
2023-01-31T23:09:20.455Z,99356.54
2023-01-31T23:14:26.384Z,99352.05
2023-01-31T23:19:32.230Z,99336.58
2023-01-31T23:24:37.965Z,99334.46
2023-01-31T23:29:43.562Z,99328.44
2023-01-31T23:34:49.691Z,99320.85
2023-01-31T23:39:55.508Z,99312.25
2023-01-31T23:45:01.192Z,99305.70
2023-01-31T23:50:08.364Z,99308.20
2023-01-31T23:55:14.359Z,99306.08
